Time;durP1;ratioP1;P1;durP2;ratioP2;P2;SDS_P1;SDS_P2;PMS_P1;PMS_P2;Temp;Humidity;BMP_temperature;BMP_pressure;BME280_temperature;BME280_humidity;BME280_pressure;Samples;Min_cycle;Max_cycle;Signal;HPM_P1;HPM_P2
2021/05/10 00:00:51;;;;;;;9.10;3.83;;;;;;;;;;4270006;33;20322;-55
2021/05/10 00:03:17;;;;;;;5.07;4.10;;;;;;;;;;4270317;33;20247;-55
2021/05/10 00:05:44;;;;;;;10.20;4.00;;;;;;;;;;4284090;33;20283;-54
2021/05/10 00:08:10;;;;;;;7.78;3.90;;;;;;;;;;4284063;33;20417;-54
2021/05/10 00:10:36;;;;;;;8.85;4.70;;;;;;;;;;4284347;33;20342;-56
2021/05/10 00:13:04;;;;;;;5.12;3.67;;;;;;;;;;4270750;33;20413;-73
2021/05/10 00:15:30;;;;;;;8.20;4.20;;;;;;;;;;4283949;33;20192;-74
2021/05/10 00:18:02;;;;;;;7.85;4.40;;;;;;;;;;4281592;33;20233;-74
2021/05/10 00:20:30;;;;;;;4.53;3.97;;;;;;;;;;4269831;33;20235;-74
2021/05/10 00:22:56;;;;;;;5.95;4.37;;;;;;;;;;4269784;33;20393;-74
2021/05/10 00:25:22;;;;;;;8.50;5.65;;;;;;;;;;4269588;33;20366;-73
2021/05/10 00:27:48;;;;;;;8.55;6.35;;;;;;;;;;4269791;33;20578;-75
2021/05/10 00:30:14;;;;;;;8.32;7.43;;;;;;;;;;4269472;33;20297;-73
2021/05/10 00:32:39;;;;;;;7.78;4.80;;;;;;;;;;4269530;33;20331;-72
2021/05/10 00:35:05;;;;;;;6.30;5.68;;;;;;;;;;4268273;33;20797;-70
2021/05/10 00:37:31;;;;;;;7.20;5.30;;;;;;;;;;4269592;33;20225;-73
2021/05/10 00:39:56;;;;;;;6.90;4.35;;;;;;;;;;4269473;33;20298;-73
2021/05/10 00:42:23;;;;;;;8.15;4.30;;;;;;;;;;4269645;33;20655;-73
2021/05/10 00:44:49;;;;;;;8.52;4.18;;;;;;;;;;4269613;33;20204;-72
2021/05/10 00:47:15;;;;;;;6.15;4.60;;;;;;;;;;4270646;33;20472;-72
2021/05/10 00:49:41;;;;;;;8.27;4.87;;;;;;;;;;4273508;33;20204;-54
2021/05/10 00:52:07;;;;;;;9.32;4.25;;;;;;;;;;4286143;33;20291;-55
2021/05/10 00:54:33;;;;;;;13.43;4.30;;;;;;;;;;4286286;33;20286;-54
2021/05/10 00:56:59;;;;;;;6.32;4.30;;;;;;;;;;4284683;33;20612;-54
2021/05/10 00:59:25;;;;;;;6.40;4.03;;;;;;;;;;4272206;33;20284;-54
2021/05/10 01:01:52;;;;;;;10.52;4.25;;;;;;;;;;4271503;33;20303;-54
2021/05/10 01:04:18;;;;;;;8.43;4.35;;;;;;;;;;4278417;33;20401;-55
2021/05/10 01:06:44;;;;;;;8.20;4.97;;;;;;;;;;4286006;33;20629;-53
2021/05/10 01:09:10;;;;;;;10.65;7.68;;;;;;;;;;4285909;33;20369;-54
2021/05/10 01:11:36;;;;;;;7.28;5.43;;;;;;;;;;4286039;33;20243;-53
2021/05/10 01:14:02;;;;;;;8.02;4.53;;;;;;;;;;4285796;33;20224;-71
2021/05/10 01:16:28;;;;;;;4.87;4.20;;;;;;;;;;4286357;33;20244;-54
2021/05/10 01:18:54;;;;;;;7.45;4.20;;;;;;;;;;4278017;33;20294;-55
2021/05/10 01:21:20;;;;;;;9.10;4.37;;;;;;;;;;4258280;33;20267;-53
2021/05/10 01:23:46;;;;;;;6.45;4.40;;;;;;;;;;4271936;33;20596;-54
2021/05/10 01:26:12;;;;;;;6.57;4.47;;;;;;;;;;4271572;33;20331;-54
2021/05/10 01:28:38;;;;;;;5.80;4.80;;;;;;;;;;4271725;33;20260;-54
2021/05/10 01:31:04;;;;;;;7.07;4.50;;;;;;;;;;4271757;33;20584;-54
2021/05/10 01:33:30;;;;;;;5.20;3.92;;;;;;;;;;4271216;33;20483;-56
2021/05/10 01:35:56;;;;;;;8.60;4.47;;;;;;;;;;4271739;33;20300;-55
2021/05/10 01:38:21;;;;;;;7.20;4.37;;;;;;;;;;4271251;33;20596;-54
2021/05/10 01:40:48;;;;;;;5.03;4.10;;;;;;;;;;4271291;33;20302;-54
2021/05/10 01:43:15;;;;;;;14.17;4.60;;;;;;;;;;4271513;33;20374;-54
2021/05/10 01:45:41;;;;;;;5.70;4.60;;;;;;;;;;4271383;33;20247;-55
2021/05/10 01:48:10;;;;;;;6.85;4.55;;;;;;;;;;4271442;33;20275;-55
2021/05/10 01:50:37;;;;;;;5.85;4.37;;;;;;;;;;4278391;33;20279;-54
2021/05/10 01:53:04;;;;;;;6.57;4.07;;;;;;;;;;4284646;33;20580;-55
2021/05/10 01:55:29;;;;;;;4.65;3.60;;;;;;;;;;4285960;33;20204;-55
2021/05/10 01:57:58;;;;;;;8.20;3.75;;;;;;;;;;4277929;33;20275;-54
2021/05/10 02:00:38;;;;;;;5.43;3.75;;;;;;;;;;4271252;33;20339;-55
2021/05/10 02:03:07;;;;;;;5.60;4.47;;;;;;;;;;4271083;33;20563;-54
2021/05/10 02:05:33;;;;;;;7.90;3.95;;;;;;;;;;4283986;33;20635;-54
2021/05/10 02:08:00;;;;;;;4.87;4.37;;;;;;;;;;4284190;33;20228;-54
2021/05/10 02:10:27;;;;;;;9.30;4.05;;;;;;;;;;4285270;33;20301;-54
2021/05/10 02:13:00;;;;;;;9.68;4.22;;;;;;;;;;4285234;33;20224;-53
2021/05/10 02:15:27;;;;;;;7.43;4.25;;;;;;;;;;4285249;33;20302;-53
2021/05/10 02:17:53;;;;;;;7.70;4.82;;;;;;;;;;4283060;33;20246;-55
2021/05/10 02:20:20;;;;;;;7.37;4.65;;;;;;;;;;4271221;33;20271;-54
2021/05/10 02:23:00;;;;;;;9.02;4.95;;;;;;;;;;4270743;33;20453;-54
2021/05/10 02:25:28;;;;;;;11.10;4.57;;;;;;;;;;4270957;33;20393;-54
2021/05/10 02:27:54;;;;;;;8.40;5.00;;;;;;;;;;4270894;33;20220;-54
2021/05/10 02:30:22;;;;;;;9.93;4.70;;;;;;;;;;4270653;33;20780;-55
2021/05/10 02:32:48;;;;;;;6.55;4.60;;;;;;;;;;4270445;33;20342;-54
2021/05/10 02:35:14;;;;;;;9.27;5.25;;;;;;;;;;4270609;33;20575;-55
2021/05/10 02:37:40;;;;;;;11.30;4.37;;;;;;;;;;4270551;33;20259;-56
2021/05/10 02:40:08;;;;;;;7.20;5.00;;;;;;;;;;4269252;33;20359;-55
2021/05/10 02:42:34;;;;;;;17.50;5.57;;;;;;;;;;4270387;33;20224;-54
2021/05/10 02:45:00;;;;;;;11.20;6.85;;;;;;;;;;4269334;33;20422;-54
2021/05/10 02:47:25;;;;;;;8.25;5.32;;;;;;;;;;4270675;33;20434;-54
2021/05/10 02:49:53;;;;;;;9.18;4.97;;;;;;;;;;4271688;33;20622;-56
2021/05/10 02:52:18;;;;;;;139.70;79.00;;;;;;;;;;4284546;33;20231;-54
2021/05/10 02:54:44;;;;;;;113.07;60.92;;;;;;;;;;4271868;33;20574;-56
2021/05/10 02:57:09;;;;;;;62.67;36.03;;;;;;;;;;4282003;33;20308;-55
2021/05/10 02:59:35;;;;;;;105.25;57.35;;;;;;;;;;4270701;33;20326;-55
2021/05/10 03:02:00;;;;;;;95.60;56.30;;;;;;;;;;4270401;33;20650;-55
2021/05/10 03:04:26;;;;;;;19.12;12.82;;;;;;;;;;4277655;33;20272;-55
2021/05/10 03:06:51;;;;;;;8.73;7.00;;;;;;;;;;4284592;33;20295;-55
2021/05/10 03:09:17;;;;;;;11.27;5.50;;;;;;;;;;4284274;33;20302;-55
2021/05/10 03:11:42;;;;;;;12.17;6.93;;;;;;;;;;4284503;33;20275;-54
2021/05/10 03:14:08;;;;;;;11.82;7.72;;;;;;;;;;4283051;33;20262;-54
2021/05/10 03:16:34;;;;;;;14.93;8.93;;;;;;;;;;4284443;33;20554;-54
2021/05/10 03:18:59;;;;;;;18.40;10.17;;;;;;;;;;4274394;33;20446;-54
2021/05/10 03:21:25;;;;;;;15.13;10.02;;;;;;;;;;4270087;33;20279;-54
2021/05/10 03:23:51;;;;;;;26.80;12.37;;;;;;;;;;4269954;33;20260;-54
2021/05/10 03:26:16;;;;;;;18.53;11.00;;;;;;;;;;4269702;33;20275;-54
2021/05/10 03:28:42;;;;;;;16.35;11.12;;;;;;;;;;4270532;33;20342;-54
2021/05/10 03:31:07;;;;;;;21.05;9.25;;;;;;;;;;4269674;33;20689;-54
2021/05/10 03:33:33;;;;;;;19.27;13.27;;;;;;;;;;4270084;33;20275;-54
2021/05/10 03:35:58;;;;;;;20.73;11.63;;;;;;;;;;4269857;33;20694;-54
2021/05/10 03:38:24;;;;;;;18.27;11.80;;;;;;;;;;4257042;33;20562;-54
2021/05/10 03:40:49;;;;;;;13.38;10.32;;;;;;;;;;4268667;33;20314;-54
2021/05/10 03:43:15;;;;;;;9.30;6.13;;;;;;;;;;4269851;33;20333;-54
2021/05/10 03:45:40;;;;;;;10.40;6.67;;;;;;;;;;4269740;33;20342;-53
2021/05/10 03:48:06;;;;;;;9.33;6.03;;;;;;;;;;4269957;33;20295;-54
2021/05/10 03:50:31;;;;;;;12.52;7.00;;;;;;;;;;4268657;33;20694;-54
2021/05/10 03:52:57;;;;;;;9.20;6.07;;;;;;;;;;4269688;33;20557;-54
2021/05/10 03:55:24;;;;;;;11.70;6.43;;;;;;;;;;4268526;33;20292;-54
2021/05/10 03:57:49;;;;;;;12.27;6.27;;;;;;;;;;4269816;33;20243;-54
2021/05/10 04:00:17;;;;;;;15.00;6.40;;;;;;;;;;4269922;33;20287;-54
2021/05/10 04:02:43;;;;;;;12.37;5.90;;;;;;;;;;4269891;33;20224;-54
2021/05/10 04:15:36;;;;;;;12.20;6.80;;;;;;;;;;4283901;33;20294;-55
2021/05/10 04:18:01;;;;;;;12.10;6.17;;;;;;;;;;4271062;33;20681;-54
2021/05/10 04:20:27;;;;;;;11.17;6.17;;;;;;;;;;4283953;33;20724;-55
2021/05/10 04:22:53;;;;;;;8.80;6.13;;;;;;;;;;4285910;33;20264;-55
2021/05/10 04:25:19;;;;;;;18.73;5.53;;;;;;;;;;4286668;33;20338;-55
2021/05/10 04:27:46;;;;;;;7.27;5.50;;;;;;;;;;4286810;33;20211;-54
2021/05/10 04:30:12;;;;;;;11.37;5.03;;;;;;;;;;4286894;33;20223;-55
2021/05/10 04:32:38;;;;;;;21.40;6.37;;;;;;;;;;4286789;33;20489;-54
2021/05/10 04:35:04;;;;;;;13.60;6.13;;;;;;;;;;4286791;33;20405;-54
2021/05/10 04:37:30;;;;;;;17.33;5.10;;;;;;;;;;4286243;33;20212;-54
2021/05/10 04:39:56;;;;;;;17.37;5.80;;;;;;;;;;4286481;33;20321;-55
2021/05/10 04:42:21;;;;;;;15.70;6.13;;;;;;;;;;4286308;33;20275;-54
2021/05/10 04:44:47;;;;;;;13.87;6.33;;;;;;;;;;4286651;33;20682;-54
2021/05/10 04:47:12;;;;;;;15.07;5.37;;;;;;;;;;4286016;33;20224;-54
2021/05/10 04:49:38;;;;;;;14.60;6.00;;;;;;;;;;4283597;33;20772;-55
2021/05/10 04:52:04;;;;;;;11.40;7.00;;;;;;;;;;4257696;33;20228;-54
2021/05/10 04:54:29;;;;;;;13.43;7.43;;;;;;;;;;4257665;33;20330;-53
2021/05/10 04:56:55;;;;;;;26.17;9.25;;;;;;;;;;4258165;33;20295;-53
2021/05/10 04:59:21;;;;;;;16.83;9.03;;;;;;;;;;4272099;33;20350;-55
2021/05/10 05:01:46;;;;;;;15.63;8.20;;;;;;;;;;4271839;33;20303;-55
2021/05/10 05:04:12;;;;;;;15.23;8.97;;;;;;;;;;4284918;33;20361;-55
2021/05/10 05:06:37;;;;;;;18.73;9.80;;;;;;;;;;4286230;33;20216;-53
2021/05/10 05:09:03;;;;;;;17.33;9.43;;;;;;;;;;4286626;33;20267;-52
2021/05/10 05:11:29;;;;;;;16.93;8.53;;;;;;;;;;4285993;33;20251;-54
2021/05/10 05:13:54;;;;;;;19.30;7.77;;;;;;;;;;4286136;33;20603;-54
2021/05/10 05:16:20;;;;;;;11.10;6.50;;;;;;;;;;4272903;33;20585;-53
2021/05/10 05:18:45;;;;;;;11.43;6.67;;;;;;;;;;4278673;33;20299;-54
2021/05/10 05:21:11;;;;;;;12.82;6.62;;;;;;;;;;4271492;33;20664;-53
2021/05/10 05:23:37;;;;;;;20.85;6.65;;;;;;;;;;4271682;33;20275;-53
2021/05/10 05:26:04;;;;;;;17.90;6.30;;;;;;;;;;4271551;33;20599;-53
2021/05/10 05:28:30;;;;;;;14.38;6.10;;;;;;;;;;4253998;33;20232;-53
2021/05/10 05:30:57;;;;;;;15.23;8.48;;;;;;;;;;4256147;33;20308;-53
2021/05/10 05:33:24;;;;;;;13.23;6.47;;;;;;;;;;4257389;33;20568;-53
2021/05/10 05:35:49;;;;;;;19.50;6.32;;;;;;;;;;4257461;33;20223;-54
2021/05/10 05:38:15;;;;;;;16.15;6.47;;;;;;;;;;4257460;33;20307;-63
2021/05/10 05:40:42;;;;;;;10.17;5.70;;;;;;;;;;4257136;33;20671;-64
2021/05/10 05:43:09;;;;;;;10.43;6.33;;;;;;;;;;4257653;33;20358;-54
2021/05/10 05:45:35;;;;;;;10.55;6.55;;;;;;;;;;4257432;33;20737;-54
2021/05/10 05:48:06;;;;;;;10.43;6.17;;;;;;;;;;4257133;33;20295;-62
2021/05/10 05:50:32;;;;;;;19.90;7.90;;;;;;;;;;4270458;33;20591;-63
2021/05/10 05:52:58;;;;;;;17.47;9.43;;;;;;;;;;4285615;33;20379;-63
2021/05/10 05:55:24;;;;;;;17.97;7.83;;;;;;;;;;4285399;33;20306;-63
2021/05/10 05:57:50;;;;;;;11.67;7.60;;;;;;;;;;4278734;33;20319;-63
2021/05/10 06:00:16;;;;;;;10.93;8.07;;;;;;;;;;4281758;33;20322;-63
2021/05/10 06:02:42;;;;;;;18.10;6.77;;;;;;;;;;4271200;33;20224;-63
2021/05/10 06:05:10;;;;;;;13.70;7.47;;;;;;;;;;4282517;33;20305;-62
2021/05/10 06:07:43;;;;;;;12.10;7.20;;;;;;;;;;4285185;33;20316;-63
2021/05/10 06:10:11;;;;;;;10.53;6.50;;;;;;;;;;4272026;33;20614;-63
2021/05/10 06:12:38;;;;;;;12.60;6.70;;;;;;;;;;4284988;33;20259;-53
2021/05/10 06:15:05;;;;;;;12.30;6.67;;;;;;;;;;4270561;33;20209;-55
2021/05/10 06:17:31;;;;;;;12.47;6.63;;;;;;;;;;4281240;33;20224;-53
2021/05/10 06:19:57;;;;;;;14.30;7.20;;;;;;;;;;4281067;33;20337;-55
2021/05/10 06:22:23;;;;;;;15.77;8.37;;;;;;;;;;4269211;33;20216;-53
2021/05/10 06:24:49;;;;;;;17.30;6.90;;;;;;;;;;4270455;33;20291;-54
2021/05/10 06:27:16;;;;;;;11.30;6.33;;;;;;;;;;4270573;33;20264;-53
2021/05/10 06:29:42;;;;;;;9.17;5.77;;;;;;;;;;4270101;33;20227;-61
2021/05/10 06:32:08;;;;;;;8.98;5.55;;;;;;;;;;4270524;33;20229;-63
2021/05/10 06:34:33;;;;;;;11.20;6.57;;;;;;;;;;4270349;33;20675;-62
2021/05/10 06:36:59;;;;;;;22.48;6.95;;;;;;;;;;4281078;33;20674;-63
2021/05/10 06:39:25;;;;;;;13.57;6.37;;;;;;;;;;4270492;33;20305;-66
2021/05/10 06:41:51;;;;;;;10.20;5.20;;;;;;;;;;4270316;33;20271;-66
2021/05/10 06:44:16;;;;;;;10.18;5.45;;;;;;;;;;4270313;33;20272;-55
2021/05/10 06:46:42;;;;;;;50.83;8.83;;;;;;;;;;4281298;33;20311;-53
2021/05/10 06:49:07;;;;;;;15.80;5.63;;;;;;;;;;4270444;33;20692;-53
2021/05/10 06:51:33;;;;;;;12.75;5.43;;;;;;;;;;4257758;33;20237;-53
2021/05/10 06:53:59;;;;;;;7.80;4.50;;;;;;;;;;4256147;33;20693;-54
2021/05/10 06:56:25;;;;;;;11.82;4.85;;;;;;;;;;4255746;33;20232;-53
2021/05/10 06:58:51;;;;;;;9.00;5.47;;;;;;;;;;4265782;33;20659;-52
2021/05/10 07:01:16;;;;;;;10.18;4.82;;;;;;;;;;4252869;33;20280;-66
2021/05/10 07:03:42;;;;;;;7.57;4.45;;;;;;;;;;4254246;33;20418;-65
2021/05/10 07:06:07;;;;;;;8.80;4.75;;;;;;;;;;4254225;33;20759;-65
2021/05/10 07:08:33;;;;;;;14.15;4.43;;;;;;;;;;4255831;33;20201;-66
2021/05/10 07:10:58;;;;;;;6.68;4.60;;;;;;;;;;4256081;33;20327;-65
2021/05/10 07:13:24;;;;;;;10.82;4.55;;;;;;;;;;4257288;33;20659;-65
2021/05/10 07:15:50;;;;;;;11.75;5.57;;;;;;;;;;4268906;33;20291;-64
2021/05/10 07:18:16;;;;;;;7.40;4.40;;;;;;;;;;4269925;33;20280;-52
2021/05/10 07:20:45;;;;;;;19.87;5.40;;;;;;;;;;4281001;33;20736;-65
2021/05/10 07:23:12;;;;;;;9.43;4.53;;;;;;;;;;4270261;33;20235;-53
2021/05/10 07:25:46;;;;;;;7.30;4.57;;;;;;;;;;4270555;33;20252;-53
2021/05/10 07:28:14;;;;;;;8.70;5.15;;;;;;;;;;4269903;33;20312;-53
2021/05/10 07:30:41;;;;;;;6.65;4.82;;;;;;;;;;4270221;33;20268;-64
2021/05/10 07:33:07;;;;;;;6.85;4.87;;;;;;;;;;4280995;33;20228;-64
2021/05/10 07:35:33;;;;;;;7.45;4.53;;;;;;;;;;4270197;33;20321;-67
2021/05/10 07:38:00;;;;;;;12.18;5.25;;;;;;;;;;4270267;33;20340;-66
2021/05/10 07:40:26;;;;;;;8.10;4.72;;;;;;;;;;4270397;33;20268;-62
2021/05/10 07:42:51;;;;;;;13.10;4.97;;;;;;;;;;4270270;33;20247;-62
2021/05/10 07:45:18;;;;;;;10.40;4.20;;;;;;;;;;4270000;33;20687;-61
2021/05/10 07:47:44;;;;;;;8.13;4.50;;;;;;;;;;4270046;33;20295;-63
2021/05/10 07:50:11;;;;;;;8.57;4.75;;;;;;;;;;4265329;33;20276;-62
2021/05/10 07:52:37;;;;;;;9.30;4.85;;;;;;;;;;4255310;33;20280;-63
2021/05/10 07:55:05;;;;;;;7.80;4.85;;;;;;;;;;4255601;33;20267;-62
2021/05/10 07:57:31;;;;;;;15.00;4.87;;;;;;;;;;4258496;33;20537;-62
2021/05/10 07:59:57;;;;;;;8.43;4.62;;;;;;;;;;4258497;33;20582;-62
2021/05/10 08:02:23;;;;;;;10.35;5.50;;;;;;;;;;4258557;33;20665;-53
2021/05/10 08:04:51;;;;;;;9.50;5.70;;;;;;;;;;4256969;33;20318;-63
2021/05/10 08:07:17;;;;;;;8.82;4.68;;;;;;;;;;4258310;33;20259;-60
2021/05/10 08:09:43;;;;;;;6.47;4.22;;;;;;;;;;4258687;33;20364;-54
2021/05/10 08:12:09;;;;;;;6.40;4.50;;;;;;;;;;4258148;33;20216;-54
2021/05/10 08:14:35;;;;;;;7.10;4.28;;;;;;;;;;4269754;33;20291;-53
2021/05/10 08:17:02;;;;;;;7.50;4.60;;;;;;;;;;4272542;33;20236;-53
2021/05/10 08:19:28;;;;;;;9.10;4.97;;;;;;;;;;4272191;33;20275;-55
2021/05/10 08:21:59;;;;;;;8.77;4.37;;;;;;;;;;4282849;33;20287;-61
2021/05/10 08:24:25;;;;;;;6.95;4.50;;;;;;;;;;4272600;33;20185;-62
2021/05/10 08:26:51;;;;;;;9.60;4.93;;;;;;;;;;4272208;33;20236;-61
2021/05/10 08:29:19;;;;;;;12.27;5.25;;;;;;;;;;4272079;33;20318;-62
2021/05/10 08:31:46;;;;;;;6.68;4.53;;;;;;;;;;4259489;33;20560;-62
2021/05/10 08:34:17;;;;;;;13.13;4.75;;;;;;;;;;4272121;33;20692;-62
2021/05/10 08:36:44;;;;;;;13.15;4.55;;;;;;;;;;4271852;33;20232;-61
2021/05/10 08:39:10;;;;;;;10.68;4.80;;;;;;;;;;4271786;33;20220;-61
2021/05/10 08:41:38;;;;;;;12.50;4.03;;;;;;;;;;4271917;33;20279;-61
2021/05/10 08:44:09;;;;;;;6.62;4.57;;;;;;;;;;4271680;33;20610;-61
2021/05/10 08:46:35;;;;;;;11.27;4.50;;;;;;;;;;4272196;33;20239;-61
2021/05/10 08:49:03;;;;;;;6.55;4.43;;;;;;;;;;4272034;33;20697;-61
2021/05/10 08:51:32;;;;;;;12.60;5.25;;;;;;;;;;4283960;33;20634;-62
2021/05/10 08:53:58;;;;;;;7.62;3.62;;;;;;;;;;4286069;33;20215;-61
2021/05/10 08:56:24;;;;;;;12.40;4.55;;;;;;;;;;4286568;33;20631;-62
2021/05/10 08:58:51;;;;;;;10.00;4.55;;;;;;;;;;4273910;33;20698;-61
2021/05/10 09:01:20;;;;;;;9.82;4.57;;;;;;;;;;4282186;33;20240;-61
2021/05/10 09:03:48;;;;;;;7.43;4.47;;;;;;;;;;4274821;33;20381;-61
2021/05/10 09:06:34;;;;;;;16.55;4.90;;;;;;;;;;4285969;33;20242;-61
2021/05/10 09:09:08;;;;;;;9.90;4.57;;;;;;;;;;4285696;33;20295;-63
2021/05/10 09:11:35;;;;;;;6.05;4.15;;;;;;;;;;4284867;33;20602;-63
2021/05/10 09:14:01;;;;;;;7.28;3.87;;;;;;;;;;4285670;33;20385;-65
2021/05/10 09:16:27;;;;;;;11.12;4.45;;;;;;;;;;4285619;33;20342;-62
2021/05/10 09:18:55;;;;;;;5.10;3.67;;;;;;;;;;4277723;33;20425;-65
2021/05/10 09:21:22;;;;;;;6.47;3.60;;;;;;;;;;4269728;33;20577;-63
2021/05/10 09:23:48;;;;;;;7.78;4.15;;;;;;;;;;4271365;33;20208;-62
2021/05/10 09:26:27;;;;;;;7.18;4.50;;;;;;;;;;4271295;33;20279;-63
2021/05/10 09:28:52;;;;;;;8.98;3.90;;;;;;;;;;4270215;33;20228;-63
2021/05/10 09:31:18;;;;;;;9.02;4.28;;;;;;;;;;4271347;33;20287;-63
2021/05/10 09:33:46;;;;;;;7.10;4.00;;;;;;;;;;4271874;33;20654;-63
2021/05/10 09:36:38;;;;;;;12.32;4.97;;;;;;;;;;4271168;33;20282;-54
2021/05/10 09:39:28;;;;;;;9.00;4.00;;;;;;;;;;4270341;33;20247;-54
2021/05/10 09:42:02;;;;;;;12.73;3.83;;;;;;;;;;4271400;33;20220;-54
2021/05/10 09:44:41;;;;;;;4.97;3.35;;;;;;;;;;4271277;33;20192;-62
2021/05/10 09:47:07;;;;;;;4.82;3.28;;;;;;;;;;4271191;33;20294;-64
2021/05/10 09:49:50;;;;;;;12.35;3.80;;;;;;;;;;4271706;33;20296;-63
2021/05/10 09:52:23;;;;;;;6.87;3.35;;;;;;;;;;4274943;33;20325;-63
2021/05/10 09:54:57;;;;;;;7.47;4.32;;;;;;;;;;4256584;33;20684;-64
2021/05/10 09:57:22;;;;;;;7.05;3.95;;;;;;;;;;4260085;33;20291;-63
2021/05/10 10:00:14;;;;;;;5.50;3.60;;;;;;;;;;4271090;33;20326;-63
2021/05/10 10:02:40;;;;;;;17.77;4.05;;;;;;;;;;4270751;33;20272;-63
2021/05/10 10:05:08;;;;;;;10.02;4.28;;;;;;;;;;4282280;33;20375;-54
2021/05/10 10:07:38;;;;;;;10.93;3.50;;;;;;;;;;4285076;33;20290;-54
2021/05/10 10:10:03;;;;;;;6.82;3.50;;;;;;;;;;4284975;33;20246;-54
2021/05/10 10:12:31;;;;;;;6.95;3.30;;;;;;;;;;4285273;33;20307;-55
2021/05/10 10:14:56;;;;;;;6.55;3.12;;;;;;;;;;4284903;33;20287;-53
2021/05/10 10:17:22;;;;;;;5.15;3.08;;;;;;;;;;4284906;33;20629;-53
2021/05/10 10:19:50;;;;;;;12.00;3.25;;;;;;;;;;4270425;33;20296;-62
2021/05/10 10:22:17;;;;;;;4.97;3.15;;;;;;;;;;4270218;33;20287;-53
2021/05/10 10:24:47;;;;;;;12.73;4.40;;;;;;;;;;4270199;33;20625;-63
2021/05/10 10:27:14;;;;;;;4.40;3.20;;;;;;;;;;4270512;33;20501;-63
2021/05/10 10:29:41;;;;;;;10.52;3.08;;;;;;;;;;4269953;33;20600;-55
2021/05/10 10:32:09;;;;;;;7.15;3.75;;;;;;;;;;4270127;33;20370;-54
2021/05/10 10:34:41;;;;;;;14.77;4.35;;;;;;;;;;4269983;33;20351;-54
2021/05/10 10:37:07;;;;;;;5.50;2.92;;;;;;;;;;4270304;33;20313;-53
2021/05/10 10:39:34;;;;;;;6.80;3.40;;;;;;;;;;4270060;33;20213;-54
2021/05/10 10:42:20;;;;;;;6.47;3.40;;;;;;;;;;4270201;33;20335;-55
2021/05/10 10:45:01;;;;;;;13.10;4.35;;;;;;;;;;4270374;33;20287;-55
2021/05/10 10:47:50;;;;;;;8.77;3.17;;;;;;;;;;4269192;33;20248;-63
2021/05/10 10:50:21;;;;;;;7.68;3.30;;;;;;;;;;4275126;33;20275;-61
2021/05/10 10:52:48;;;;;;;7.43;4.03;;;;;;;;;;4284412;33;20768;-53
2021/05/10 10:55:27;;;;;;;7.32;3.22;;;;;;;;;;4284335;33;20243;-54
2021/05/10 10:57:54;;;;;;;7.70;3.70;;;;;;;;;;4277612;33;20259;-53
2021/05/10 11:00:20;;;;;;;7.65;3.35;;;;;;;;;;4269866;33;20259;-54
2021/05/10 11:02:52;;;;;;;13.25;3.45;;;;;;;;;;4269450;33;20457;-53
2021/05/10 11:05:27;;;;;;;7.50;3.12;;;;;;;;;;4282319;33;20303;-53
2021/05/10 11:08:01;;;;;;;5.87;2.97;;;;;;;;;;4284511;33;20318;-53
2021/05/10 11:10:51;;;;;;;12.13;3.30;;;;;;;;;;4284336;33;20208;-53
2021/05/10 11:13:26;;;;;;;6.15;3.37;;;;;;;;;;4283749;33;20232;-52
2021/05/10 11:15:52;;;;;;;4.65;3.10;;;;;;;;;;4283993;33;20243;-53
2021/05/10 11:19:02;;;;;;;5.70;3.35;;;;;;;;;;4279331;33;20232;-53
2021/05/10 11:21:28;;;;;;;7.28;3.10;;;;;;;;;;4225150;34;20264;-55
2021/05/10 11:23:57;;;;;;;11.18;3.42;;;;;;;;;;4225007;34;20291;-54
2021/05/10 11:26:58;;;;;;;10.60;3.20;;;;;;;;;;4247943;33;20250;-54
2021/05/10 11:29:27;;;;;;;7.15;3.00;;;;;;;;;;4269702;33;20208;-54
2021/05/10 11:31:58;;;;;;;5.55;3.10;;;;;;;;;;4269397;33;20284;-54
2021/05/10 11:34:36;;;;;;;9.00;3.20;;;;;;;;;;4268846;33;20638;-54
2021/05/10 11:37:03;;;;;;;3.62;2.62;;;;;;;;;;4269716;33;20231;-54
2021/05/10 11:39:31;;;;;;;9.45;3.15;;;;;;;;;;4269685;33;20216;-55
2021/05/10 11:42:00;;;;;;;3.55;2.78;;;;;;;;;;4269114;33;20262;-54
2021/05/10 11:44:26;;;;;;;8.38;3.12;;;;;;;;;;4269323;33;20216;-55
2021/05/10 11:46:56;;;;;;;9.02;3.20;;;;;;;;;;4269462;33;20247;-55
2021/05/10 11:49:32;;;;;;;8.63;2.80;;;;;;;;;;4269521;33;20482;-55
2021/05/10 11:52:09;;;;;;;5.40;3.00;;;;;;;;;;4280321;33;20647;-55
2021/05/10 11:54:38;;;;;;;3.60;2.70;;;;;;;;;;4268911;33;20303;-54
2021/05/10 11:57:05;;;;;;;9.60;2.87;;;;;;;;;;4269848;33;20266;-67
2021/05/10 12:02:09;;;;;;;4.22;2.65;;;;;;;;;;4269466;33;20298;-65
2021/05/10 12:04:36;;;;;;;4.90;2.30;;;;;;;;;;4278099;33;20740;-66
2021/05/10 12:07:04;;;;;;;4.85;3.25;;;;;;;;;;4284195;33;20379;-69
2021/05/10 12:10:01;;;;;;;18.12;3.80;;;;;;;;;;4284227;33;20205;-65
2021/05/10 12:12:30;;;;;;;10.50;3.15;;;;;;;;;;4284119;33;20283;-65
2021/05/10 12:14:58;;;;;;;12.00;3.00;;;;;;;;;;4283682;33;20330;-65
2021/05/10 12:17:28;;;;;;;5.55;2.40;;;;;;;;;;4283866;33;20678;-65
2021/05/10 12:20:12;;;;;;;5.07;2.65;;;;;;;;;;4270060;33;20612;-65
2021/05/10 12:22:57;;;;;;;4.22;2.65;;;;;;;;;;4269679;33;20348;-65
2021/05/10 12:25:25;;;;;;;7.32;2.28;;;;;;;;;;4269723;33;20212;-65
2021/05/10 12:27:57;;;;;;;5.53;2.80;;;;;;;;;;4269684;33;20304;-64
2021/05/10 12:30:35;;;;;;;6.72;2.97;;;;;;;;;;4269437;33;20636;-63
2021/05/10 12:33:07;;;;;;;11.12;2.55;;;;;;;;;;4267610;33;20232;-63
2021/05/10 12:35:36;;;;;;;5.72;2.83;;;;;;;;;;4265595;33;20580;-62
2021/05/10 12:38:03;;;;;;;7.82;3.17;;;;;;;;;;4267312;33;20236;-63
2021/05/10 12:40:41;;;;;;;4.37;2.25;;;;;;;;;;4269538;33;20205;-55
2021/05/10 12:43:15;;;;;;;2.75;2.10;;;;;;;;;;4270596;33;20296;-54
2021/05/10 12:45:56;;;;;;;13.27;2.40;;;;;;;;;;4272156;33;20627;-53
2021/05/10 12:48:23;;;;;;;10.50;3.33;;;;;;;;;;4272092;33;20255;-53
2021/05/10 12:50:50;;;;;;;11.98;2.58;;;;;;;;;;4279877;33;20668;-54
2021/05/10 12:53:32;;;;;;;5.53;2.80;;;;;;;;;;4286284;33;20319;-54
2021/05/10 12:56:02;;;;;;;3.40;2.30;;;;;;;;;;4286362;33;20259;-54
2021/05/10 12:58:28;;;;;;;9.00;3.00;;;;;;;;;;4275968;33;20287;-54
2021/05/10 13:00:54;;;;;;;7.80;2.83;;;;;;;;;;4271694;33;20767;-62
2021/05/10 13:03:34;;;;;;;15.18;3.37;;;;;;;;;;4265770;33;20647;-62
2021/05/10 13:06:01;;;;;;;4.82;2.58;;;;;;;;;;4271709;33;20221;-63
2021/05/10 13:08:44;;;;;;;9.07;2.53;;;;;;;;;;4271673;33;20338;-62
2021/05/10 13:11:16;;;;;;;4.50;2.17;;;;;;;;;;4271535;33;20264;-61
2021/05/10 13:14:12;;;;;;;8.27;2.53;;;;;;;;;;4271263;33;20220;-62
2021/05/10 13:35:54;;;;;;;10.55;3.35;;;;;;;;;;4271150;33;20343;-54
2021/05/10 13:38:19;;;;;;;10.65;3.28;;;;;;;;;;4271484;33;20291;-54
2021/05/10 13:40:45;;;;;;;5.70;2.90;;;;;;;;;;4270962;33;20626;-55
2021/05/10 13:43:30;;;;;;;20.45;3.95;;;;;;;;;;4271151;33;20232;-64
2021/05/10 13:45:59;;;;;;;4.45;2.08;;;;;;;;;;4281532;33;20299;-63
2021/05/10 13:48:25;;;;;;;14.35;3.58;;;;;;;;;;4270445;33;20293;-54
2021/05/10 13:50:50;;;;;;;6.60;2.55;;;;;;;;;;4278948;33;20290;-55
2021/05/10 13:53:18;;;;;;;5.95;2.45;;;;;;;;;;4296100;33;20327;-54
2021/05/10 13:55:44;;;;;;;5.70;2.65;;;;;;;;;;4285077;33;20220;-54
2021/05/10 13:58:10;;;;;;;2.92;1.83;;;;;;;;;;4276618;33;20212;-54
2021/05/10 14:00:36;;;;;;;6.95;2.42;;;;;;;;;;4271002;33;20362;-55
2021/05/10 14:03:02;;;;;;;2.85;2.08;;;;;;;;;;4270485;33;20639;-54
2021/05/10 14:05:28;;;;;;;5.03;2.47;;;;;;;;;;4271865;33;20298;-55
2021/05/10 14:07:53;;;;;;;6.45;2.53;;;;;;;;;;4284427;33;20286;-54
2021/05/10 14:10:19;;;;;;;5.28;2.55;;;;;;;;;;4283007;33;20356;-54
2021/05/10 14:12:48;;;;;;;5.10;2.55;;;;;;;;;;4283457;33;20287;-54
2021/05/10 14:15:14;;;;;;;6.10;2.70;;;;;;;;;;4284166;33;20223;-55
2021/05/10 14:17:40;;;;;;;10.70;2.78;;;;;;;;;;4283216;33;20744;-54
2021/05/10 14:20:09;;;;;;;10.23;2.55;;;;;;;;;;4269868;33;20299;-55
2021/05/10 14:22:36;;;;;;;8.50;2.30;;;;;;;;;;4269773;33;20224;-54
2021/05/10 14:25:02;;;;;;;3.58;2.30;;;;;;;;;;4270781;33;20264;-55
2021/05/10 14:27:27;;;;;;;4.95;2.00;;;;;;;;;;4270202;33;20299;-54
2021/05/10 14:29:54;;;;;;;4.72;2.30;;;;;;;;;;4270711;33;20282;-53
2021/05/10 14:32:19;;;;;;;8.82;2.45;;;;;;;;;;4270528;33;20220;-54
2021/05/10 14:34:45;;;;;;;7.47;2.30;;;;;;;;;;4270179;33;20306;-62
2021/05/10 14:37:10;;;;;;;8.32;2.40;;;;;;;;;;4270366;33;20645;-54
2021/05/10 14:39:36;;;;;;;7.80;3.30;;;;;;;;;;4270282;33;20287;-63
2021/05/10 14:42:01;;;;;;;6.28;2.05;;;;;;;;;;4269159;33;20356;-63
2021/05/10 14:44:27;;;;;;;6.25;2.20;;;;;;;;;;4270192;33;20706;-61
2021/05/10 14:46:53;;;;;;;3.60;2.15;;;;;;;;;;4270027;33;20216;-62
2021/05/10 14:49:19;;;;;;;4.12;2.15;;;;;;;;;;4270202;33;20303;-63
2021/05/10 14:51:47;;;;;;;7.97;2.00;;;;;;;;;;4283901;33;20240;-62
2021/05/10 14:54:12;;;;;;;4.03;2.10;;;;;;;;;;4284386;33;20247;-63
2021/05/10 14:56:38;;;;;;;6.05;2.15;;;;;;;;;;4284596;33;20212;-62
2021/05/10 14:59:04;;;;;;;7.18;2.25;;;;;;;;;;4270524;33;20378;-61
2021/05/10 15:01:31;;;;;;;6.97;2.12;;;;;;;;;;4270000;33;20280;-61
2021/05/10 15:03:56;;;;;;;6.25;2.60;;;;;;;;;;4274430;33;20259;-59
2021/05/10 15:06:22;;;;;;;5.97;2.12;;;;;;;;;;4283953;33;20223;-59
2021/05/10 15:08:47;;;;;;;9.80;2.60;;;;;;;;;;4284245;33;20665;-61
2021/05/10 15:11:13;;;;;;;8.88;2.80;;;;;;;;;;4271005;33;20645;-61
2021/05/10 15:13:40;;;;;;;6.40;2.28;;;;;;;;;;4284002;33;20256;-62